Redondo, Valles Caldera, New Mexico Weather observations

Data are for 10 minute period ending at time listed.
 Day   Time   Solar   Ave.   Ave.  Ave.  Vector  Max.   Baro.   Total    
  of    of     Rad.   Air    Rel.  Wind   Wind   Wind  Press.  Precip.   
Year   Day            Temp.  Hum.  Speed  Dir.   Gust                    
2016   (MST)  Kw/m2    F      %     mph   deg.    mph    mb.     in.     
-------------------------------------------------------------------------
 210    4:30   0.00   54.3    64    6.5   154    14.3   697.7    0.00 
 210    4:40   0.00   54.5    63    7.3   158    16.1   697.7    0.00 
 210    4:50   0.00   54.3    64    5.0   158    11.9   697.8    0.00 
 210    5:00   0.00   54.2    64    5.0   166    13.1   697.8    0.00 
 210    5:10   0.00   54.2    63    4.9   166    11.3   697.8    0.00 
 210    5:20   0.00   54.2    63    5.6   170    10.8   697.9    0.00 
 210    5:30   0.01   54.7    61    6.1   172    11.9   697.9    0.00 
 210    5:40   0.01   54.8    60    3.4   171     9.0   698.0    0.00 
 210    5:50   0.02   55.2    58    4.5   173    10.2   698.1    0.00 
 210    6:00   0.02   55.3    58    3.0   176    10.2   698.1    0.00 
 210    6:10   0.02   55.8    58    2.6   190    12.5   698.2    0.00 
 210    6:20   0.07   55.0    61    1.4    14     4.8   698.2    0.00 
 210    6:30   0.16   56.7    57    2.0    14    10.2   698.4    0.00 
 210    6:40   0.11   58.7    55    0.0    11     1.2   698.4    0.00 
 210    6:50   0.22   58.7    56    1.2   346     4.2   698.4    0.00 
 210    7:00   0.30   60.4    54    0.1    16     1.2   698.5    0.00 
 210    7:10   0.31   64.0    46    0.7   323     5.4   698.5    0.00 
 210    7:20   0.36   62.3    48    2.6   230     6.0   698.6    0.00 
 210    7:30   0.40   62.0    48    2.4   212     7.2   698.7    0.00 
 210    7:40   0.43   63.0    47    1.0   196     6.0   698.7    0.00 
 210    7:50   0.47   62.8    46    2.5   207     6.6   698.7    0.00 
 210    8:00   0.51   63.3    45    1.7   257     8.4   698.8    0.00 
 210    8:10   0.54   63.4    46    1.7   204     6.6   698.8    0.00 
 210    8:20   0.57   63.8    45    2.4   211     7.8   698.8    0.00 
 210    8:30   0.60   63.3    46    3.5   237     7.8   698.9    0.00 
 210    8:40   0.63   63.5    46    3.4   243     7.2   698.9    0.00 
 210    8:50   0.66   63.7    47    2.4   270     7.2   699.0    0.00 
 210    9:00   0.70   64.8    45    1.7   258     7.2   698.9    0.00 
 210    9:10   0.72   65.5    47    1.1   243     5.4   699.0    0.00 
 210    9:20   0.75   65.4    47    1.5   276     6.6   699.0    0.00 
 210    9:30   0.78   65.4    46    2.8   280     7.2   699.0    0.00 
 210    9:40   0.80   65.2    46    2.1   268     8.4   699.1    0.00 
 210    9:50   0.82   65.6    47    2.8   266     6.6   699.2    0.00 
 210   10:00   0.85   65.7    48    2.1   274     7.2   699.3    0.00 
 210   10:10   0.87   66.5    44    2.5   254     7.2   699.3    0.00 
 210   10:20   0.89   66.1    42    2.2   248     9.0   699.3    0.00 
 210   10:30   0.91   66.5    42    2.5   267     8.4   699.2    0.00 
 210   10:40   0.93   66.9    42    2.8   299     8.4   699.2    0.00 
 210   10:50   0.96   68.7    40    3.1   324     6.0   699.2    0.00 
 210   11:00   0.99   69.3    39    3.1   289     8.4   699.1    0.00 
 210   11:10   1.02   67.7    39    2.5   285     6.0   699.0    0.00 
 210   11:20   1.05   68.6    40    3.4   313     7.2   698.9    0.00 
 210   11:30   1.15   70.1    37    3.5   298     9.6   698.8    0.00 
 210   11:40   1.09   70.7    35    1.7   294     6.6   698.8    0.00 
 210   11:50   0.74   69.6    36    3.9   287     9.0   698.6    0.00 
 210   12:00   0.39   68.6    37    2.9   307     7.2   698.6    0.00 
 210   12:10   0.15   65.2    41    2.6   320     9.6   698.6    0.00 
 210   12:20   0.08   63.7    45    0.4   316     3.6   698.7    0.00 
 210   12:30   0.07   62.5    48    0.3     2     2.4   698.8    0.00 
 210   12:40   0.07   61.3    48    0.0    84     1.2   698.8    0.00 
 210   12:50   0.06   60.1    55    0.5   120     4.2   698.9    0.00 
 210   13:00   0.07   59.2    58    0.7   159     4.2   698.7    0.00 
 210   13:10   0.13   59.6    57    2.4   162     5.4   698.5    0.00 
 210   13:20   0.20   60.5    50    4.3   178    10.2   698.4    0.00 
 210   13:30   0.12   61.1    44    1.9   221     9.6   698.6    0.00 
 210   13:40   0.08   60.6    46    1.6   282     6.0   698.7    0.00 
 210   13:50   0.18   60.1    42    3.1   300    11.3   698.3    0.00 
 210   14:00   0.27   62.7    30    1.1   185     5.4   697.8    0.00 
 210   14:10   0.52   64.0    36    2.3   192     7.2   697.8    0.00 
 210   14:20   0.31   65.1    32    0.4   244     3.6   697.8    0.00 
 210   14:30   0.23   65.8    31    0.0     0     0.0   697.6    0.00 
 210   14:40   0.19   65.6    33    0.0     0     0.0   697.5    0.00 
 210   14:50   0.19   65.4    32    0.2   316     3.6   697.4    0.00 
 210   15:00   0.72   67.6    38    3.3   331     7.8   697.5    0.00 
 210   15:10   0.57   71.2    34    3.7   318     6.0   697.6    0.00 
 210   15:20   0.66   68.4    31    4.8   308    10.8   697.5    0.00 
 210   15:30   0.98   72.9    27    5.9   318    11.3   697.3    0.00 
 210   15:40   0.48   72.6    20    6.7   325    17.9   697.3    0.00 
 210   15:50   0.24   69.3    20    5.2    13    13.1   697.4    0.00 
 210   16:00   0.53   70.3    23    2.4   309     9.6   697.4    0.00 
 210   16:10   0.59   72.4    24    5.2   313    14.3   697.3    0.00 
 210   16:20   0.28   70.1    24    3.9   317    10.8   697.4    0.00 
 210   16:30   0.15   67.4    25    2.8   342     7.8   697.4    0.00 
 210   16:40   0.40   69.4    23    2.5   357     7.2   697.2    0.00 
 210   16:50   0.20   71.8    22    0.3   342     4.2   697.3    0.00 
 210   17:00   0.35   69.1    29    1.9   113     8.4   697.4    0.00 
 210   17:10   0.23   67.2    33    3.1   116     7.2   697.4    0.00 
 210   17:20   0.11   65.0    34    3.4   117    11.3   697.4    0.00 
 210   17:30   0.07   63.4    36    5.1   118    11.3   697.4    0.00 
 210   17:40   0.12   62.9    36    5.2   112    10.8   697.4    0.00 
 210   17:50   0.08   62.7    38    3.2   204    10.2   697.3    0.00 
 210   18:00   0.02   61.5    41    2.9   135    10.2   697.3    0.00 
 210   18:10   0.02   60.4    41    0.8   321     5.4   697.4    0.00 
 210   18:20   0.01   59.6    42    0.1   168     2.4   697.5    0.00 
 210   18:30   0.01   59.9    40    0.9   232     4.8   697.6    0.00 
 210   18:40   0.01   59.5    42    1.2   300     7.8   697.7    0.00 
 210   18:50   0.01   58.5    49    0.5   161     4.2   697.2    0.00 
 210   19:00   0.01   58.0    47    1.4   191     6.0   697.0    0.00 
 210   19:10   0.01   59.5    40    4.3   185     9.0   697.1    0.00 
 210   19:20   0.00   60.8    35    4.2   260    11.3   697.1    0.00 
 210   19:30   0.00   59.2    40    5.8   184    13.1   697.1    0.00 
 210   19:40   0.00   59.5    37    5.4   168    13.1   696.7    0.00 
 210   19:50   0.00   59.9    34    0.0   199     1.2   696.8    0.00 
 210   20:00   0.00   59.1    34    0.0     0     0.0   696.8    0.00 
 210   20:10   0.00   58.0    33    0.3   207     3.6   697.0    0.00 
 210   20:20   0.00   58.4    31    0.6   247     3.6   697.1    0.00 
 210   20:30   0.00   58.9    30    0.0   271     1.2   697.1    0.00 
 210   20:40   0.00   58.4    30    0.0     0     0.0   697.2    0.00 
 210   20:50   0.00   57.7    30    0.1   304     1.8   697.2    0.00 
 210   21:00   0.00   58.1    29    0.4   298     3.6   697.2    0.00 
 210   21:10   0.00   58.8    28    0.5   298     3.0   697.3    0.00 
 210   21:20   0.00   59.6    29    1.8   301     4.8   697.4    0.00 
 210   21:30   0.00   60.2    30    2.2   301     6.0   697.3    0.00 
 210   21:40   0.00   60.1    31    1.7   302     6.6   697.2    0.00 
 210   21:50   0.00   59.6    32    0.9   302     5.4   697.2    0.00 
 210   22:00   0.00   59.3    34    0.9   302     5.4   697.2    0.00 
 210   22:10   0.00   59.3    35    1.2   301     5.4   697.2    0.00 
 210   22:20   0.00   59.3    36    0.0   278     1.8   697.2    0.00 
 210   22:30   0.00   58.6    38    0.1   264     2.4   697.1    0.00 
 210   22:40   0.00   59.1    37    0.4   254     4.2   697.2    0.00 
 210   22:50   0.00   59.4    37    0.8   206     6.6   697.2    0.00 
 210   23:00   0.00   59.9    37    0.4   174     4.2   697.2    0.00 
 210   23:10   0.00   60.2    36    1.0   171     3.6   697.3    0.00 
 210   23:20   0.00   60.0    37    1.3   163     5.4   697.3    0.00 
 210   23:30   0.00   60.1    37    2.9   158     6.6   697.2    0.00 
 210   23:40   0.00   60.5    36    4.0   155     8.4   697.2    0.00 
 210   23:50   0.00   60.7    36    4.1   160    11.3   697.1    0.00 
 211    0:00   0.00   60.2    38    3.4   162     7.8   697.2    0.00 
 211    0:10   0.00   59.4    38    3.7   155     7.2   697.2    0.00 
 211    0:20   0.00   59.0    38    4.3   151     8.4   697.2    0.00 
 211    0:30   0.00   58.3    39    4.2   153     8.4   697.1    0.00 
 211    0:40   0.00   58.6    38    4.7   153     9.6   697.1    0.00 
 211    0:50   0.00   58.7    36    5.8   158    11.3   697.0    0.00 
 211    1:00   0.00   58.5    36    5.6   159    11.3   697.1    0.00 
 211    1:10   0.00   58.4    38    6.3   162    11.9   697.0    0.00 
 211    1:20   0.00   58.1    40    6.1   164    13.7   697.0    0.00 
 211    1:30   0.00   57.5    44    6.8   162    14.9   697.0    0.00 
 211    1:40   0.00   57.1    47    7.8   157    12.5   696.9    0.00 
 211    1:50   0.00   56.8    49    8.1   164    15.5   696.8    0.00 
 211    2:00   0.00   56.6    50    7.7   168    16.7   696.8    0.00 
 211    2:10   0.00   56.6    50    8.8   168    17.9   696.9    0.00 
 211    2:20   0.00   56.5    51    8.5   163    16.7   696.8    0.00 
 211    2:30   0.00   56.4    52    7.7   167    14.3   696.9    0.00 
 211    2:40   0.00   56.0    53    8.4   163    16.7   696.9    0.00 
 211    2:50   0.00   55.7    54    8.0   165    17.9   696.8    0.00 
 211    3:00   0.00   55.3    54    7.9   165    14.9   696.7    0.00 
 211    3:10   0.00   55.3    54    8.0   164    16.1   696.8    0.00 
 211    3:20   0.00   55.0    55    7.2   170    14.3   696.8    0.00 
 211    3:30   0.00   54.9    55    7.2   168    17.3   696.8    0.00 
 211    3:40   0.00   54.8    55    6.5   167    15.5   696.7    0.00 
 211    3:50   0.00   54.5    56    6.6   167    14.3   696.8    0.00 
 211    4:00   0.00   54.3    57    7.2   170    13.7   696.8    0.00 
 211    4:10   0.00   54.2    58    5.8   174    12.5   696.8    0.00 
 211    4:20   0.00   54.0    58    5.9   178    11.9   696.9    0.00 

Return to Redondo, Valles Caldera graphs page.


Western Regional Climate Center,wrcc@dri.edu